createdAt,value
2022-10-23T00:00:53.221Z,35.30
2022-10-23T00:01:55.521Z,34.30
2022-10-23T00:02:59.693Z,32.03
2022-10-23T00:04:12.779Z,33.40
2022-10-23T00:05:14.991Z,32.63
2022-10-23T00:06:17.960Z,33.45
2022-10-23T00:07:20.441Z,33.13
2022-10-23T00:08:22.728Z,31.70
2022-10-23T00:09:32.643Z,31.52
2022-10-23T00:10:35.568Z,31.10
2022-10-23T00:11:38.099Z,31.15
2022-10-23T00:12:40.646Z,31.63
2022-10-23T00:13:43.564Z,31.00
2022-10-23T00:14:45.814Z,31.05
2022-10-23T00:15:48.222Z,31.42
2022-10-23T00:16:51.126Z,30.50
2022-10-23T00:17:53.708Z,31.08
2022-10-23T00:18:56.155Z,29.60
2022-10-23T00:19:58.817Z,29.33
2022-10-23T00:21:01.622Z,31.10
2022-10-23T00:22:03.917Z,30.98
2022-10-23T00:23:06.200Z,30.75
2022-10-23T00:25:12.150Z,31.48
2022-10-23T00:26:15.992Z,32.90
2022-10-23T00:27:18.326Z,31.08
2022-10-23T00:28:20.677Z,31.17
2022-10-23T00:29:22.944Z,32.65
2022-10-23T00:30:25.499Z,31.35
2022-10-23T00:31:27.680Z,31.55
2022-10-23T00:32:29.981Z,30.80
2022-10-23T00:33:36.478Z,33.13
2022-10-23T00:34:38.782Z,32.85
2022-10-23T00:35:42.322Z,31.90
2022-10-23T00:36:44.527Z,32.85
2022-10-23T00:37:46.842Z,33.25
2022-10-23T00:38:50.306Z,30.63
2022-10-23T00:39:53.057Z,32.72
2022-10-23T00:40:55.274Z,30.02
2022-10-23T00:41:57.707Z,33.08
2022-10-23T00:43:00.083Z,32.70
2022-10-23T00:44:02.443Z,32.20
2022-10-23T00:45:16.797Z,31.23
2022-10-23T00:46:18.961Z,33.17
2022-10-23T00:47:21.917Z,33.25
2022-10-23T00:48:26.255Z,32.42
2022-10-23T00:49:28.717Z,32.90
2022-10-23T00:50:33.442Z,30.98
2022-10-23T00:51:46.924Z,32.97
2022-10-23T00:52:51.775Z,29.70
2022-10-23T00:54:22.979Z,32.13
2022-10-23T00:55:24.637Z,31.23
2022-10-23T00:56:27.322Z,30.85
2022-10-23T00:57:29.775Z,31.55
2022-10-23T00:58:32.843Z,29.35
2022-10-23T00:59:35.064Z,27.52
2022-10-23T01:00:46.373Z,28.48
2022-10-23T01:01:49.166Z,28.65
2022-10-23T01:02:52.713Z,28.17
2022-10-23T01:03:56.067Z,29.80
2022-10-23T01:04:58.394Z,26.20
2022-10-23T01:06:09.700Z,28.90
2022-10-23T01:07:15.277Z,26.95
2022-10-23T01:08:29.010Z,25.25
2022-10-23T01:09:35.950Z,25.75
2022-10-23T01:10:54.713Z,26.27
2022-10-23T01:12:18.663Z,25.52
2022-10-23T01:13:26.605Z,23.55
2022-10-23T01:14:35.936Z,25.58
2022-10-23T01:15:41.222Z,23.95
2022-10-23T01:17:02.408Z,23.75
2022-10-23T01:18:29.936Z,24.65
2022-10-23T01:19:50.547Z,24.25
2022-10-23T01:20:55.928Z,22.15
2022-10-23T01:22:13.044Z,22.90
2022-10-23T01:23:51.432Z,22.83
2022-10-23T01:24:56.553Z,21.73
2022-10-23T01:26:39.810Z,22.38
2022-10-23T01:27:56.330Z,22.85
2022-10-23T01:29:16.900Z,24.05
2022-10-23T01:30:19.250Z,20.77
2022-10-23T01:31:33.058Z,24.83
2022-10-23T01:32:48.431Z,23.23
2022-10-23T01:34:03.856Z,25.38
2022-10-23T01:35:19.024Z,25.90
2022-10-23T01:36:29.505Z,26.85
2022-10-23T01:37:44.874Z,23.10
2022-10-23T01:38:58.570Z,24.33
2022-10-23T01:40:05.393Z,24.33
2022-10-23T01:41:14.806Z,25.90
2022-10-23T01:42:21.206Z,25.98
2022-10-23T01:43:35.446Z,23.73
2022-10-23T01:44:50.891Z,25.25
2022-10-23T01:45:59.431Z,24.45
2022-10-23T01:47:06.356Z,23.95
2022-10-23T01:48:18.267Z,23.77
2022-10-23T01:49:23.195Z,22.77
2022-10-23T01:50:30.478Z,23.52
2022-10-23T01:51:39.192Z,23.77
2022-10-23T01:52:43.593Z,23.55
2022-10-23T01:53:48.543Z,22.75
2022-10-23T01:54:53.822Z,22.90
2022-10-23T01:55:56.928Z,22.25
2022-10-23T01:57:02.050Z,22.98
2022-10-23T01:58:08.669Z,23.10
2022-10-23T01:59:21.595Z,23.13
2022-10-23T02:00:24.012Z,20.98
2022-10-23T02:01:30.240Z,23.23
2022-10-23T02:02:34.442Z,23.70
2022-10-23T02:03:40.891Z,22.35
2022-10-23T02:05:04.585Z,23.13
2022-10-23T02:06:07.105Z,22.50
2022-10-23T02:07:09.360Z,22.40
2022-10-23T02:08:12.024Z,22.38
2022-10-23T02:09:15.193Z,22.90
2022-10-23T02:10:17.944Z,21.95
2022-10-23T02:11:21.954Z,24.17
2022-10-23T02:14:16.891Z,23.58
2022-10-23T02:15:31.135Z,23.48
2022-10-23T02:16:52.799Z,22.30
2022-10-23T02:18:24.559Z,24.15
2022-10-23T02:19:43.956Z,24.88
2022-10-23T02:20:51.759Z,25.02
2022-10-23T02:22:07.580Z,26.73
2022-10-23T02:23:33.345Z,26.73
2022-10-23T02:24:43.857Z,25.30
2022-10-23T02:26:10.983Z,26.33
2022-10-23T02:27:19.798Z,27.90
2022-10-23T02:28:34.275Z,26.58
2022-10-23T02:29:51.896Z,30.85
2022-10-23T02:30:59.366Z,29.58
2022-10-23T02:32:02.288Z,29.40
2022-10-23T02:33:05.969Z,30.88
2022-10-23T02:34:08.293Z,31.00
2022-10-23T02:35:11.462Z,30.67
2022-10-23T02:36:14.856Z,31.88
2022-10-23T02:37:17.585Z,33.28
2022-10-23T02:38:36.752Z,34.00
2022-10-23T02:39:39.773Z,35.15
2022-10-23T02:40:47.766Z,34.75
2022-10-23T02:41:56.136Z,34.17
2022-10-23T02:43:08.333Z,34.13
2022-10-23T02:44:10.487Z,32.53
2022-10-23T02:45:23.202Z,34.25
2022-10-23T02:46:30.344Z,33.00
2022-10-23T02:47:43.139Z,33.40
2022-10-23T02:48:57.884Z,32.40
2022-10-23T02:50:42.660Z,33.50
2022-10-23T02:52:21.136Z,33.83
2022-10-23T02:53:49.411Z,31.80
2022-10-23T02:55:24.070Z,30.80
2022-10-23T02:56:41.319Z,33.25
2022-10-23T02:57:49.879Z,29.30
2022-10-23T02:58:58.345Z,29.95
2022-10-23T03:00:07.869Z,29.92
2022-10-23T03:01:15.892Z,28.02
2022-10-23T03:02:26.144Z,29.75
2022-10-23T03:03:35.469Z,30.65
2022-10-23T03:04:40.238Z,30.23
2022-10-23T03:05:45.214Z,27.20
2022-10-23T03:06:51.017Z,30.95
2022-10-23T03:07:54.125Z,30.23
2022-10-23T03:09:05.052Z,30.48
2022-10-23T03:10:09.111Z,31.05
2022-10-23T03:11:11.924Z,29.02
2022-10-23T03:12:14.379Z,29.58
2022-10-23T03:13:16.713Z,31.20
2022-10-23T03:14:19.799Z,29.98
2022-10-23T03:15:22.544Z,30.33
2022-10-23T03:16:26.667Z,30.33
2022-10-23T03:17:30.291Z,28.48
2022-10-23T03:18:35.374Z,28.77
2022-10-23T03:19:38.365Z,27.77
2022-10-23T03:20:40.631Z,28.65
2022-10-23T03:21:42.979Z,27.85
2022-10-23T03:22:45.967Z,27.75
2022-10-23T03:23:48.793Z,28.02
2022-10-23T03:24:54.606Z,29.60
2022-10-23T03:25:57.073Z,29.27
2022-10-23T03:27:13.848Z,28.15
2022-10-23T03:28:16.139Z,27.17
2022-10-23T03:29:18.925Z,26.90
2022-10-23T03:30:22.102Z,27.75
2022-10-23T03:31:29.105Z,28.73
2022-10-23T03:32:34.079Z,27.92
2022-10-23T03:33:36.350Z,28.60
2022-10-23T03:34:44.447Z,26.80
2022-10-23T03:36:56.491Z,29.05
2022-10-23T03:37:58.676Z,29.90
2022-10-23T03:39:02.138Z,29.17
2022-10-23T03:40:04.907Z,28.98
2022-10-23T03:41:10.344Z,31.23
2022-10-23T03:42:12.724Z,28.08
2022-10-23T03:43:15.303Z,30.65
2022-10-23T03:44:18.188Z,29.27
2022-10-23T03:45:21.005Z,29.77
2022-10-23T03:46:24.477Z,28.98
2022-10-23T03:47:32.406Z,29.13
2022-10-23T03:48:39.370Z,29.08
2022-10-23T03:49:41.923Z,29.23
2022-10-23T03:50:44.140Z,28.63
2022-10-23T03:51:52.157Z,29.55
2022-10-23T03:52:56.532Z,28.52
2022-10-23T03:53:58.795Z,28.13
2022-10-23T03:55:01.162Z,29.35
2022-10-23T03:56:03.518Z,30.70
2022-10-23T03:57:05.707Z,28.27
2022-10-23T03:58:08.034Z,29.88
2022-10-23T03:59:10.347Z,31.23
2022-10-23T04:00:13.193Z,30.75
2022-10-23T04:01:22.923Z,30.25
2022-10-23T04:02:25.347Z,32.60
2022-10-23T04:03:27.914Z,31.35
2022-10-23T04:04:30.572Z,32.05
2022-10-23T04:05:33.394Z,31.65
2022-10-23T04:06:36.127Z,31.20
2022-10-23T04:07:39.625Z,31.25
2022-10-23T04:08:44.152Z,30.80
2022-10-23T04:09:51.498Z,30.05
2022-10-23T04:10:55.183Z,31.45
2022-10-23T04:12:12.016Z,28.55
2022-10-23T04:13:14.349Z,30.90
2022-10-23T04:14:17.716Z,31.50
2022-10-23T04:15:20.233Z,30.98
2022-10-23T04:16:22.714Z,31.77
2022-10-23T04:17:25.119Z,31.25
2022-10-23T04:18:30.555Z,29.17
2022-10-23T04:19:32.860Z,31.83
2022-10-23T04:20:35.273Z,32.78
2022-10-23T04:21:38.042Z,32.03
2022-10-23T04:22:40.497Z,32.88
2022-10-23T04:23:43.349Z,32.60
2022-10-23T04:24:51.612Z,32.35
2022-10-23T04:25:57.625Z,32.38
2022-10-23T04:27:01.544Z,30.10
2022-10-23T04:28:05.263Z,31.23
2022-10-23T04:29:12.226Z,29.77
2022-10-23T04:30:14.645Z,31.27
2022-10-23T04:31:17.025Z,32.28
2022-10-23T04:32:19.344Z,33.67
2022-10-23T04:33:21.650Z,35.47
2022-10-23T04:34:26.333Z,36.33
2022-10-23T04:35:29.642Z,38.00
2022-10-23T04:36:31.902Z,36.80
2022-10-23T04:37:40.954Z,33.72
2022-10-23T04:38:43.750Z,37.50
2022-10-23T04:39:46.083Z,36.25
2022-10-23T04:40:49.494Z,40.35
2022-10-23T04:41:55.974Z,40.85
2022-10-23T04:43:00.500Z,39.35
2022-10-23T04:44:07.944Z,35.13
2022-10-23T04:45:13.538Z,39.85
2022-10-23T04:46:18.115Z,36.92
2022-10-23T04:47:22.853Z,36.65
2022-10-23T04:48:35.174Z,36.20
2022-10-23T04:49:55.603Z,34.33
2022-10-23T04:51:17.889Z,30.75
2022-10-23T04:52:34.343Z,31.02
2022-10-23T04:53:59.565Z,30.92
2022-10-23T04:55:19.477Z,29.63
2022-10-23T04:56:39.027Z,32.03
2022-10-23T04:57:44.412Z,30.15
2022-10-23T04:58:47.531Z,34.30
2022-10-23T04:59:50.022Z,32.83
2022-10-23T05:00:53.900Z,31.63
2022-10-23T05:01:59.941Z,31.75
2022-10-23T05:03:02.249Z,30.33
2022-10-23T05:04:11.000Z,30.08
2022-10-23T05:05:33.924Z,30.25
2022-10-23T05:07:03.579Z,28.65
2022-10-23T05:08:23.684Z,30.80
2022-10-23T05:10:01.153Z,30.00
2022-10-23T05:11:12.575Z,30.80
2022-10-23T05:12:20.192Z,32.25
2022-10-23T05:13:23.977Z,31.92
2022-10-23T05:14:26.225Z,30.20
2022-10-23T05:15:28.647Z,33.83
2022-10-23T05:16:43.286Z,33.17
2022-10-23T05:17:49.433Z,32.15
2022-10-23T05:18:51.912Z,32.83
2022-10-23T05:19:58.109Z,33.58
2022-10-23T05:21:17.722Z,31.92
2022-10-23T05:22:27.105Z,32.63
2022-10-23T05:23:32.273Z,34.38
2022-10-23T05:24:37.236Z,34.30
2022-10-23T05:25:40.523Z,30.70
2022-10-23T05:26:53.137Z,35.20
2022-10-23T05:27:56.097Z,36.28
2022-10-23T05:28:58.443Z,35.17
2022-10-23T05:30:00.706Z,34.83
2022-10-23T05:31:06.571Z,39.05
2022-10-23T05:32:13.701Z,36.05
2022-10-23T05:33:16.564Z,37.70
2022-10-23T05:34:23.493Z,39.92
2022-10-23T05:35:25.877Z,41.50
2022-10-23T05:36:28.756Z,41.95
2022-10-23T05:37:32.935Z,45.83
2022-10-23T05:39:49.431Z,43.30
2022-10-23T05:40:53.401Z,44.45
2022-10-23T05:41:57.569Z,44.05
2022-10-23T05:43:00.907Z,42.65
2022-10-23T05:44:32.109Z,43.63
2022-10-23T05:45:54.638Z,42.58
2022-10-23T05:46:59.814Z,39.60
2022-10-23T05:48:34.566Z,35.78
2022-10-23T05:49:55.918Z,37.20
2022-10-23T05:51:23.647Z,34.13
2022-10-23T05:52:39.955Z,36.75
2022-10-23T05:54:11.407Z,36.13
2022-10-23T05:55:23.625Z,35.88
2022-10-23T05:56:43.093Z,35.08
2022-10-23T05:57:54.976Z,34.35
2022-10-23T05:59:14.704Z,32.60
2022-10-23T06:00:36.590Z,32.72
2022-10-23T06:01:59.059Z,32.30
2022-10-23T06:03:16.383Z,31.30
2022-10-23T06:04:19.612Z,31.52
2022-10-23T06:05:52.009Z,31.83
2022-10-23T06:06:57.287Z,36.25
2022-10-23T06:08:00.248Z,35.35
2022-10-23T06:09:04.039Z,33.80
2022-10-23T06:10:10.180Z,29.60
2022-10-23T06:11:16.599Z,27.95
2022-10-23T06:12:26.880Z,25.52
2022-10-23T06:13:29.237Z,25.70
2022-10-23T06:14:31.396Z,25.92
2022-10-23T06:15:33.826Z,24.00
2022-10-23T06:16:41.048Z,27.17
2022-10-23T06:17:43.993Z,25.75
2022-10-23T06:18:47.711Z,24.30
2022-10-23T06:19:51.476Z,24.23
2022-10-23T06:20:53.977Z,28.83
2022-10-23T06:22:01.546Z,29.85
2022-10-23T06:23:21.198Z,29.65
2022-10-23T06:24:52.611Z,29.63
2022-10-23T06:25:59.477Z,29.77
2022-10-23T06:27:11.421Z,32.83
2022-10-23T06:28:19.820Z,30.80
2022-10-23T06:29:23.364Z,29.75
2022-10-23T06:30:26.481Z,31.13
2022-10-23T06:31:28.875Z,32.10
2022-10-23T06:33:45.543Z,28.98
2022-10-23T06:34:47.989Z,28.98
2022-10-23T06:35:50.215Z,29.40
2022-10-23T06:36:52.722Z,28.90
2022-10-23T06:38:10.635Z,28.35
2022-10-23T06:39:18.464Z,28.98
2022-10-23T06:40:55.797Z,28.45
2022-10-23T06:42:10.470Z,27.85
2022-10-23T06:43:27.906Z,27.10
2022-10-23T06:44:57.004Z,27.55
2022-10-23T06:46:19.291Z,26.80
2022-10-23T06:47:41.704Z,27.45
2022-10-23T06:49:20.364Z,25.52
2022-10-23T06:50:25.403Z,27.23
2022-10-23T06:51:29.916Z,28.17
2022-10-23T06:52:46.670Z,28.55
2022-10-23T06:53:52.337Z,28.98
2022-10-23T06:55:14.693Z,27.58
2022-10-23T06:56:17.133Z,30.45
2022-10-23T06:57:22.572Z,28.15
2022-10-23T06:58:26.080Z,27.88
2022-10-23T06:59:38.982Z,31.25
2022-10-23T07:00:42.573Z,31.83
2022-10-23T07:01:45.081Z,31.98
2022-10-23T07:02:48.369Z,31.92
2022-10-23T07:03:50.783Z,30.30
2022-10-23T07:04:57.933Z,25.88
2022-10-23T07:06:06.344Z,25.20
2022-10-23T07:07:08.800Z,25.90
2022-10-23T07:08:19.749Z,26.30
2022-10-23T07:09:27.178Z,28.00
2022-10-23T07:10:29.327Z,24.95
2022-10-23T07:11:33.417Z,25.75
2022-10-23T07:12:36.538Z,25.42
2022-10-23T07:13:59.048Z,27.92
2022-10-23T07:15:01.276Z,26.00
2022-10-23T07:16:11.138Z,26.52
2022-10-23T07:17:13.611Z,24.85
2022-10-23T07:18:17.079Z,23.23
2022-10-23T07:19:57.530Z,26.48
2022-10-23T07:21:00.134Z,25.75
2022-10-23T07:22:03.940Z,23.75
2022-10-23T07:23:41.447Z,22.20
2022-10-23T07:24:46.194Z,22.52
2022-10-23T07:26:11.694Z,23.35
2022-10-23T07:27:14.008Z,23.63
2022-10-23T07:28:16.625Z,22.92
2022-10-23T07:29:19.114Z,24.10
2022-10-23T07:30:22.840Z,26.40
2022-10-23T07:31:29.576Z,23.48
2022-10-23T07:32:50.635Z,24.15
2022-10-23T07:34:11.532Z,23.58
2022-10-23T07:36:39.885Z,23.02
2022-10-23T07:37:42.416Z,23.30
2022-10-23T07:38:45.623Z,22.75
2022-10-23T07:39:48.131Z,24.30
2022-10-23T07:40:50.396Z,23.30
2022-10-23T07:41:53.776Z,19.92
2022-10-23T07:42:56.558Z,21.77
2022-10-23T07:43:59.399Z,21.17
2022-10-23T07:45:01.866Z,23.35
2022-10-23T07:46:05.207Z,23.23
2022-10-23T07:47:11.848Z,23.27
2022-10-23T07:48:17.731Z,23.13
2022-10-23T07:50:38.296Z,19.73
2022-10-23T07:51:40.719Z,20.85
2022-10-23T07:52:43.756Z,21.60
2022-10-23T07:53:48.580Z,23.27
2022-10-23T07:55:18.706Z,23.13
2022-10-23T07:56:30.098Z,22.75
2022-10-23T07:57:59.134Z,22.33
2022-10-23T07:59:27.868Z,22.88
2022-10-23T08:00:30.769Z,23.60
2022-10-23T08:01:44.094Z,24.25
2022-10-23T08:02:46.729Z,25.38
2022-10-23T08:03:49.113Z,23.60
2022-10-23T08:04:51.575Z,22.98
2022-10-23T08:06:10.256Z,23.17
2022-10-23T08:07:12.702Z,23.55
2022-10-23T08:08:18.409Z,22.35
2022-10-23T08:09:23.268Z,21.90
2022-10-23T08:10:25.645Z,21.13
2022-10-23T08:11:31.122Z,20.75
2022-10-23T08:12:33.585Z,21.17
2022-10-23T08:13:36.438Z,20.10
2022-10-23T08:14:41.263Z,19.95
2022-10-23T08:15:45.279Z,19.83
2022-10-23T08:17:10.035Z,17.42
2022-10-23T08:18:49.649Z,20.15
2022-10-23T08:19:53.380Z,18.63
2022-10-23T08:21:01.801Z,18.25
2022-10-23T08:22:04.100Z,23.83
2022-10-23T08:23:07.123Z,20.70
2022-10-23T08:24:13.994Z,18.42
2022-10-23T08:25:21.910Z,19.45
2022-10-23T08:26:31.320Z,19.63
2022-10-23T08:27:34.064Z,20.25
2022-10-23T08:28:36.729Z,20.45
2022-10-23T08:29:39.813Z,20.05
2022-10-23T08:30:42.189Z,19.67
2022-10-23T08:31:44.731Z,19.77
2022-10-23T08:32:57.638Z,21.17
2022-10-23T08:34:01.486Z,22.20
2022-10-23T08:35:03.846Z,21.33
2022-10-23T08:36:17.946Z,24.15
2022-10-23T08:37:20.159Z,22.92
2022-10-23T08:38:22.373Z,22.88
2022-10-23T08:39:24.589Z,23.40
2022-10-23T08:40:46.428Z,24.52
2022-10-23T08:42:25.937Z,25.45
2022-10-23T08:43:38.694Z,25.65
2022-10-23T08:45:06.011Z,25.73
2022-10-23T08:46:18.161Z,26.98
2022-10-23T08:47:46.752Z,27.58
2022-10-23T08:48:56.624Z,27.30
2022-10-23T08:51:44.237Z,28.02
2022-10-23T08:53:12.810Z,27.33
2022-10-23T08:54:20.712Z,27.65
2022-10-23T08:55:42.938Z,27.08
2022-10-23T08:56:52.456Z,26.17
2022-10-23T08:58:06.254Z,27.50
2022-10-23T08:59:20.130Z,25.65
2022-10-23T09:00:22.553Z,26.23
2022-10-23T09:01:47.148Z,23.27
2022-10-23T09:02:52.502Z,26.05
2022-10-23T09:03:54.746Z,26.30
2022-10-23T09:04:58.876Z,27.05
2022-10-23T09:06:09.064Z,24.33
2022-10-23T09:07:43.144Z,23.85
2022-10-23T09:08:51.037Z,24.30
2022-10-23T09:10:14.368Z,25.33
2022-10-23T09:12:07.166Z,22.98
2022-10-23T09:13:34.965Z,24.20
2022-10-23T09:14:55.945Z,22.70
2022-10-23T09:16:26.250Z,22.73
2022-10-23T09:17:29.696Z,23.17
2022-10-23T09:18:32.423Z,24.73
2022-10-23T09:19:34.973Z,22.48
2022-10-23T09:20:37.616Z,21.70
2022-10-23T09:21:39.965Z,19.75
2022-10-23T09:22:43.691Z,19.65
2022-10-23T09:23:45.978Z,21.52
2022-10-23T09:24:52.983Z,21.42
2022-10-23T09:25:57.246Z,21.45
2022-10-23T09:27:00.840Z,21.73
2022-10-23T09:28:05.544Z,20.80
2022-10-23T09:29:27.723Z,21.88
2022-10-23T09:30:32.864Z,21.02
2022-10-23T09:31:35.109Z,23.55
2022-10-23T09:32:38.450Z,22.20
2022-10-23T09:33:41.188Z,21.35
2022-10-23T09:34:55.226Z,24.75
2022-10-23T09:36:03.031Z,23.27
2022-10-23T09:37:22.532Z,24.17
2022-10-23T09:38:33.343Z,21.70
2022-10-23T09:39:37.008Z,23.52
2022-10-23T09:40:42.041Z,24.98
2022-10-23T09:41:44.529Z,24.40
2022-10-23T09:43:11.854Z,22.33
2022-10-23T09:44:23.090Z,24.02
2022-10-23T09:45:29.451Z,26.02
2022-10-23T09:46:46.002Z,24.20
2022-10-23T09:47:48.305Z,33.72
2022-10-23T09:48:59.030Z,41.80
2022-10-23T09:50:03.463Z,84.15
2022-10-23T09:51:26.109Z,102.47
2022-10-23T09:52:39.212Z,69.63
2022-10-23T09:54:01.768Z,56.42
2022-10-23T09:55:20.812Z,31.05
2022-10-23T09:56:35.409Z,31.23
2022-10-23T09:57:43.144Z,28.20
2022-10-23T09:58:56.684Z,31.08
2022-10-23T10:00:20.647Z,29.17
2022-10-23T10:01:36.478Z,26.42
2022-10-23T10:03:05.262Z,28.00
2022-10-23T10:04:31.129Z,30.08
2022-10-23T10:05:35.023Z,28.30
2022-10-23T10:06:43.310Z,31.95
2022-10-23T10:07:55.947Z,30.67
2022-10-23T10:09:15.675Z,24.95
2022-10-23T10:10:17.890Z,27.85
2022-10-23T10:11:37.568Z,36.70
2022-10-23T10:12:51.114Z,37.80
2022-10-23T10:14:01.956Z,39.33
2022-10-23T10:15:25.575Z,35.53
2022-10-23T10:16:54.227Z,36.92
2022-10-23T10:18:03.906Z,41.33
2022-10-23T10:19:21.609Z,39.45
2022-10-23T10:20:49.850Z,49.47
2022-10-23T10:22:16.758Z,49.08
2022-10-23T10:23:50.546Z,47.28
2022-10-23T10:25:20.285Z,25.55
2022-10-23T10:26:35.251Z,27.08
2022-10-23T10:27:54.640Z,24.85
2022-10-23T10:29:20.032Z,27.10
2022-10-23T10:30:23.922Z,25.50
2022-10-23T10:31:53.081Z,34.78
2022-10-23T10:33:01.332Z,35.70
2022-10-23T10:34:35.870Z,33.28
2022-10-23T10:35:50.393Z,28.48
2022-10-23T10:36:56.825Z,27.10
2022-10-23T10:38:33.926Z,30.70
2022-10-23T10:39:57.977Z,36.72
2022-10-23T10:41:18.803Z,30.48
2022-10-23T10:42:32.503Z,27.23
2022-10-23T10:43:40.870Z,23.90
2022-10-23T10:45:18.126Z,27.30
2022-10-23T10:46:27.869Z,28.05
2022-10-23T10:48:03.561Z,35.95
2022-10-23T10:49:22.079Z,52.15
2022-10-23T10:50:51.330Z,52.97
2022-10-23T10:52:22.558Z,31.92
2022-10-23T10:54:04.009Z,26.77
2022-10-23T10:55:19.283Z,23.83
2022-10-23T10:56:27.032Z,23.15
2022-10-23T10:57:34.661Z,24.85
2022-10-23T10:58:48.431Z,23.85
2022-10-23T10:59:54.492Z,23.38
2022-10-23T11:00:59.569Z,24.42
2022-10-23T11:02:28.765Z,23.30
2022-10-23T11:05:06.023Z,21.13
2022-10-23T11:06:15.542Z,23.55
2022-10-23T11:07:22.828Z,21.65
2022-10-23T11:08:44.464Z,22.55
2022-10-23T11:10:00.523Z,20.92
2022-10-23T11:11:22.620Z,22.00
2022-10-23T11:12:28.036Z,20.02
2022-10-23T11:13:37.668Z,21.52
2022-10-23T11:14:42.879Z,19.92
2022-10-23T11:15:45.853Z,20.88
2022-10-23T11:17:10.441Z,19.88
2022-10-23T11:18:19.086Z,19.05
2022-10-23T11:19:34.909Z,18.50
2022-10-23T11:20:51.043Z,23.75
2022-10-23T11:21:56.650Z,17.65
2022-10-23T11:23:18.866Z,18.73
2022-10-23T11:24:26.882Z,17.90
2022-10-23T11:25:47.680Z,18.52
2022-10-23T11:27:08.819Z,17.55
2022-10-23T11:28:38.700Z,18.92
2022-10-23T11:30:15.276Z,17.48
2022-10-23T11:32:06.421Z,18.77
2022-10-23T11:33:34.373Z,16.77
2022-10-23T11:34:52.103Z,18.05
2022-10-23T11:36:03.071Z,19.00
2022-10-23T11:37:05.557Z,18.27
2022-10-23T11:38:13.778Z,18.85
2022-10-23T11:39:18.714Z,18.23
2022-10-23T11:40:25.777Z,17.23
2022-10-23T11:41:34.164Z,17.67
2022-10-23T11:42:39.940Z,18.00
2022-10-23T11:44:01.723Z,19.13
2022-10-23T11:45:05.006Z,18.20
2022-10-23T11:46:23.558Z,17.50
2022-10-23T11:47:37.979Z,20.55
2022-10-23T11:48:44.326Z,23.83
2022-10-23T11:49:46.540Z,21.92
2022-10-23T11:50:55.655Z,18.40
2022-10-23T11:52:04.301Z,17.70
2022-10-23T11:53:23.407Z,19.45
2022-10-23T11:54:27.460Z,19.35
2022-10-23T11:55:32.356Z,19.02
2022-10-23T11:56:35.146Z,17.95
2022-10-23T11:57:37.728Z,17.08
2022-10-23T11:58:53.477Z,16.92
2022-10-23T11:59:57.724Z,17.65
2022-10-23T12:01:05.965Z,17.63
2022-10-23T12:02:32.578Z,17.50
2022-10-23T12:03:59.409Z,18.80
2022-10-23T12:05:09.086Z,17.83
2022-10-23T12:06:23.038Z,18.00
2022-10-23T12:07:33.206Z,22.13
2022-10-23T12:08:40.095Z,18.73
2022-10-23T12:09:52.344Z,18.75
2022-10-23T12:10:55.614Z,16.17
2022-10-23T12:12:02.907Z,18.65
2022-10-23T12:13:06.776Z,19.10
2022-10-23T12:15:33.164Z,16.92
2022-10-23T12:16:36.907Z,16.75
2022-10-23T12:17:40.602Z,16.52
2022-10-23T12:18:48.065Z,16.80
2022-10-23T12:19:53.925Z,20.10
2022-10-23T12:20:59.160Z,19.77
2022-10-23T12:22:02.458Z,18.85
2022-10-23T12:23:40.443Z,18.55
2022-10-23T12:24:59.829Z,18.50
2022-10-23T12:26:13.032Z,17.42
2022-10-23T12:27:57.341Z,19.95
2022-10-23T12:29:26.157Z,16.98
2022-10-23T12:30:47.819Z,18.15
2022-10-23T12:32:09.091Z,16.83
2022-10-23T12:33:37.746Z,18.25
2022-10-23T12:34:46.529Z,17.95
2022-10-23T12:36:39.053Z,19.15
2022-10-23T12:38:15.447Z,18.75
2022-10-23T12:39:28.704Z,19.83
2022-10-23T12:40:31.255Z,20.55
2022-10-23T12:41:35.332Z,20.48
2022-10-23T12:42:38.328Z,20.77
2022-10-23T12:43:44.196Z,20.63
2022-10-23T12:44:46.715Z,20.17
2022-10-23T12:45:50.552Z,21.35
2022-10-23T12:47:04.370Z,20.30
2022-10-23T12:48:07.382Z,21.38
2022-10-23T12:49:18.903Z,20.15
2022-10-23T12:50:24.509Z,21.02
2022-10-23T12:51:35.405Z,21.77
2022-10-23T12:52:39.902Z,20.95
2022-10-23T12:53:42.741Z,24.08
2022-10-23T12:54:45.858Z,20.90
2022-10-23T12:57:28.485Z,19.27
2022-10-23T12:58:33.613Z,20.10
2022-10-23T12:59:41.961Z,20.27
2022-10-23T13:00:53.764Z,19.92
2022-10-23T13:01:57.522Z,20.85
2022-10-23T13:03:04.412Z,21.38
2022-10-23T13:04:27.946Z,21.77
2022-10-23T13:05:32.417Z,20.58
2022-10-23T13:06:35.248Z,19.85
2022-10-23T13:07:44.882Z,21.42
2022-10-23T13:08:50.257Z,22.33
2022-10-23T13:10:19.191Z,22.85
2022-10-23T13:11:37.424Z,21.92
2022-10-23T13:12:50.872Z,22.45
2022-10-23T13:13:53.779Z,24.27
2022-10-23T13:15:00.836Z,24.60
2022-10-23T13:16:15.498Z,22.58
2022-10-23T13:17:19.075Z,24.20
2022-10-23T13:18:21.783Z,22.30
2022-10-23T13:19:26.201Z,23.33
2022-10-23T13:20:38.362Z,23.63
2022-10-23T13:21:46.716Z,23.40
2022-10-23T13:23:01.232Z,23.33
2022-10-23T13:24:04.185Z,21.13
2022-10-23T13:25:27.791Z,21.02
2022-10-23T13:26:47.753Z,18.77
2022-10-23T13:27:51.432Z,20.13
2022-10-23T13:28:54.672Z,18.58
2022-10-23T13:29:58.481Z,19.65
2022-10-23T13:31:26.335Z,19.70
2022-10-23T13:32:31.084Z,18.63
2022-10-23T13:33:37.365Z,21.40
2022-10-23T13:34:40.060Z,20.67
2022-10-23T13:35:42.809Z,19.80
2022-10-23T13:36:59.402Z,19.67
2022-10-23T13:38:11.291Z,19.73
2022-10-23T13:39:17.335Z,18.83
2022-10-23T13:40:26.584Z,21.83
2022-10-23T13:41:41.423Z,19.73
2022-10-23T13:42:44.462Z,20.05
2022-10-23T13:43:48.259Z,20.42
2022-10-23T13:44:50.950Z,19.98
2022-10-23T13:45:53.969Z,20.60
2022-10-23T13:46:57.101Z,21.00
2022-10-23T13:48:00.103Z,19.92
2022-10-23T13:49:03.136Z,20.50
2022-10-23T13:50:07.880Z,19.17
2022-10-23T13:51:24.207Z,17.85
2022-10-23T13:52:28.379Z,17.42
2022-10-23T13:53:31.799Z,19.25
2022-10-23T13:54:34.872Z,17.55
2022-10-23T13:55:40.865Z,18.52
2022-10-23T13:56:43.997Z,19.05
2022-10-23T13:57:47.595Z,18.25
2022-10-23T13:58:51.414Z,19.27
2022-10-23T13:59:56.387Z,19.98
2022-10-23T14:00:59.501Z,20.17
2022-10-23T14:02:05.517Z,20.08
2022-10-23T14:03:09.298Z,20.67
2022-10-23T14:05:17.838Z,18.38
2022-10-23T14:06:20.691Z,18.70
2022-10-23T14:07:24.546Z,18.20
2022-10-23T14:08:27.811Z,20.98
2022-10-23T14:09:31.737Z,21.75
2022-10-23T14:10:35.228Z,22.85
2022-10-23T14:11:41.301Z,19.15
2022-10-23T14:12:45.255Z,20.20
2022-10-23T14:13:49.113Z,21.33
2022-10-23T14:14:53.431Z,21.52
2022-10-23T14:15:56.278Z,18.63
2022-10-23T14:16:59.682Z,19.67
2022-10-23T14:18:08.071Z,20.65
2022-10-23T14:19:12.106Z,19.75
2022-10-23T14:20:17.258Z,18.15
2022-10-23T14:21:23.107Z,20.30
2022-10-23T14:22:27.615Z,18.95
2022-10-23T14:23:31.317Z,18.80
2022-10-23T14:25:38.249Z,20.08
2022-10-23T14:26:42.847Z,19.45
2022-10-23T14:27:46.009Z,20.42
2022-10-23T14:28:53.719Z,18.60
2022-10-23T14:29:58.011Z,19.55
2022-10-23T14:31:08.901Z,20.55
2022-10-23T14:32:12.220Z,20.58
2022-10-23T14:33:17.245Z,20.77
2022-10-23T14:34:20.470Z,19.58
2022-10-23T14:35:23.445Z,20.23
2022-10-23T14:36:34.266Z,19.65
2022-10-23T14:37:48.754Z,20.40
2022-10-23T14:38:56.281Z,17.85
2022-10-23T14:39:59.901Z,20.35
2022-10-23T14:41:03.120Z,20.90
2022-10-23T14:42:06.123Z,20.40
2022-10-23T14:43:10.252Z,21.40
2022-10-23T14:44:15.233Z,22.17
2022-10-23T14:45:19.129Z,21.75
2022-10-23T14:46:26.132Z,21.02
2022-10-23T14:47:30.064Z,19.77
2022-10-23T14:48:33.229Z,21.17
2022-10-23T14:49:36.474Z,22.15
2022-10-23T14:50:44.959Z,24.10
2022-10-23T14:51:48.616Z,25.52
2022-10-23T14:52:52.159Z,24.52
2022-10-23T14:53:58.903Z,24.35
2022-10-23T14:55:02.551Z,25.98
2022-10-23T14:56:06.528Z,25.60
2022-10-23T14:57:09.850Z,24.33
2022-10-23T14:58:13.598Z,22.38
2022-10-23T14:59:16.925Z,21.48
2022-10-23T15:00:19.783Z,22.33
2022-10-23T15:01:23.697Z,19.58
2022-10-23T15:02:28.335Z,21.23
2022-10-23T15:03:31.432Z,21.90
2022-10-23T15:04:35.488Z,21.15
2022-10-23T15:05:42.080Z,20.45
2022-10-23T15:06:47.790Z,21.70
2022-10-23T15:07:52.750Z,22.95
2022-10-23T15:08:56.788Z,22.88
2022-10-23T15:09:59.565Z,24.02
2022-10-23T15:11:07.678Z,21.85
2022-10-23T15:12:13.143Z,24.08
2022-10-23T15:13:15.866Z,25.92
2022-10-23T15:14:18.597Z,26.02